sensor_id;sensor_type;location;lat;lon;timestamp;P1;durP1;ratioP1;P2;durP2;ratioP2
71353;SDS011;59393;51.652;4.864;2023-03-01T00:00:51;8.68;;;3.60;;
71353;SDS011;59393;51.652;4.864;2023-03-01T00:03:17;12.17;;;3.53;;
71353;SDS011;59393;51.652;4.864;2023-03-01T00:05:46;8.40;;;3.78;;
71353;SDS011;59393;51.652;4.864;2023-03-01T00:08:12;8.45;;;3.95;;
71353;SDS011;59393;51.652;4.864;2023-03-01T00:10:38;8.15;;;3.38;;
71353;SDS011;59393;51.652;4.864;2023-03-01T00:13:04;10.10;;;3.80;;
71353;SDS011;59393;51.652;4.864;2023-03-01T00:15:31;9.65;;;4.20;;
71353;SDS011;59393;51.652;4.864;2023-03-01T00:17:57;7.70;;;3.30;;
71353;SDS011;59393;51.652;4.864;2023-03-01T00:20:23;12.30;;;3.85;;
71353;SDS011;59393;51.652;4.864;2023-03-01T00:22:49;9.65;;;4.25;;
71353;SDS011;59393;51.652;4.864;2023-03-01T00:25:15;8.83;;;3.27;;
71353;SDS011;59393;51.652;4.864;2023-03-01T00:27:41;10.15;;;3.65;;
71353;SDS011;59393;51.652;4.864;2023-03-01T00:30:07;7.10;;;3.10;;
71353;SDS011;59393;51.652;4.864;2023-03-01T00:32:33;8.52;;;3.13;;
71353;SDS011;59393;51.652;4.864;2023-03-01T00:34:59;10.00;;;3.43;;
71353;SDS011;59393;51.652;4.864;2023-03-01T00:37:25;8.52;;;3.53;;
71353;SDS011;59393;51.652;4.864;2023-03-01T00:39:51;9.43;;;4.05;;
71353;SDS011;59393;51.652;4.864;2023-03-01T00:42:17;7.28;;;3.42;;
71353;SDS011;59393;51.652;4.864;2023-03-01T00:44:44;9.45;;;3.72;;
71353;SDS011;59393;51.652;4.864;2023-03-01T00:47:09;9.53;;;3.23;;
71353;SDS011;59393;51.652;4.864;2023-03-01T00:49:35;9.82;;;3.80;;
71353;SDS011;59393;51.652;4.864;2023-03-01T00:52:01;9.02;;;3.50;;
71353;SDS011;59393;51.652;4.864;2023-03-01T00:54:29;8.20;;;3.00;;
71353;SDS011;59393;51.652;4.864;2023-03-01T00:56:55;7.93;;;3.20;;
71353;SDS011;59393;51.652;4.864;2023-03-01T00:59:21;9.18;;;3.28;;
71353;SDS011;59393;51.652;4.864;2023-03-01T01:01:47;7.35;;;3.38;;
71353;SDS011;59393;51.652;4.864;2023-03-01T01:04:13;9.20;;;3.35;;
71353;SDS011;59393;51.652;4.864;2023-03-01T01:06:48;11.60;;;4.15;;
71353;SDS011;59393;51.652;4.864;2023-03-01T01:09:15;7.60;;;3.47;;
71353;SDS011;59393;51.652;4.864;2023-03-01T01:11:46;9.40;;;3.20;;
71353;SDS011;59393;51.652;4.864;2023-03-01T01:14:12;10.50;;;3.38;;
71353;SDS011;59393;51.652;4.864;2023-03-01T01:16:39;8.05;;;3.50;;
71353;SDS011;59393;51.652;4.864;2023-03-01T01:19:05;8.50;;;3.50;;
71353;SDS011;59393;51.652;4.864;2023-03-01T01:21:31;8.37;;;3.87;;
71353;SDS011;59393;51.652;4.864;2023-03-01T01:23:57;7.85;;;2.97;;
71353;SDS011;59393;51.652;4.864;2023-03-01T01:26:28;7.97;;;3.67;;
71353;SDS011;59393;51.652;4.864;2023-03-01T01:28:54;8.90;;;3.40;;
71353;SDS011;59393;51.652;4.864;2023-03-01T01:31:20;9.98;;;3.83;;
71353;SDS011;59393;51.652;4.864;2023-03-01T01:33:48;8.27;;;3.30;;
71353;SDS011;59393;51.652;4.864;2023-03-01T01:36:14;8.82;;;3.90;;
71353;SDS011;59393;51.652;4.864;2023-03-01T01:38:40;11.23;;;4.32;;
71353;SDS011;59393;51.652;4.864;2023-03-01T01:41:07;8.07;;;3.85;;
71353;SDS011;59393;51.652;4.864;2023-03-01T01:43:37;19.33;;;6.53;;
71353;SDS011;59393;51.652;4.864;2023-03-01T01:46:13;16.93;;;6.23;;
71353;SDS011;59393;51.652;4.864;2023-03-01T01:48:45;18.58;;;7.10;;
71353;SDS011;59393;51.652;4.864;2023-03-01T01:51:18;14.95;;;5.07;;
71353;SDS011;59393;51.652;4.864;2023-03-01T01:53:44;9.70;;;4.03;;
71353;SDS011;59393;51.652;4.864;2023-03-01T01:56:12;9.25;;;4.07;;
71353;SDS011;59393;51.652;4.864;2023-03-01T01:58:39;10.27;;;3.53;;
71353;SDS011;59393;51.652;4.864;2023-03-01T02:01:06;9.60;;;3.90;;
71353;SDS011;59393;51.652;4.864;2023-03-01T02:03:33;11.63;;;3.38;;
71353;SDS011;59393;51.652;4.864;2023-03-01T02:06:46;7.97;;;3.17;;
71353;SDS011;59393;51.652;4.864;2023-03-01T02:08:54;10.52;;;3.47;;
71353;SDS011;59393;51.652;4.864;2023-03-01T02:11:21;9.70;;;3.73;;
71353;SDS011;59393;51.652;4.864;2023-03-01T02:13:47;8.85;;;2.95;;
71353;SDS011;59393;51.652;4.864;2023-03-01T02:16:14;7.30;;;3.20;;
71353;SDS011;59393;51.652;4.864;2023-03-01T02:18:41;10.20;;;3.03;;
71353;SDS011;59393;51.652;4.864;2023-03-01T02:21:17;8.07;;;3.17;;
71353;SDS011;59393;51.652;4.864;2023-03-01T02:23:46;9.53;;;3.50;;
71353;SDS011;59393;51.652;4.864;2023-03-01T02:28:39;9.25;;;3.72;;
71353;SDS011;59393;51.652;4.864;2023-03-01T02:31:06;8.45;;;3.60;;
71353;SDS011;59393;51.652;4.864;2023-03-01T02:33:52;7.65;;;3.42;;
71353;SDS011;59393;51.652;4.864;2023-03-01T02:36:19;8.07;;;3.13;;
71353;SDS011;59393;51.652;4.864;2023-03-01T02:38:46;9.38;;;3.78;;
71353;SDS011;59393;51.652;4.864;2023-03-01T02:41:14;7.28;;;3.35;;
71353;SDS011;59393;51.652;4.864;2023-03-01T02:43:41;7.80;;;3.22;;
71353;SDS011;59393;51.652;4.864;2023-03-01T02:46:08;10.02;;;3.83;;
71353;SDS011;59393;51.652;4.864;2023-03-01T02:51:10;9.07;;;3.65;;
71353;SDS011;59393;51.652;4.864;2023-03-01T02:53:43;2.47;;;0.98;;
71353;SDS011;59393;51.652;4.864;2023-03-01T02:56:11;9.57;;;3.47;;
71353;SDS011;59393;51.652;4.864;2023-03-01T02:58:39;7.20;;;3.17;;
71353;SDS011;59393;51.652;4.864;2023-03-01T03:01:10;8.93;;;3.17;;
71353;SDS011;59393;51.652;4.864;2023-03-01T03:03:36;8.68;;;3.30;;
71353;SDS011;59393;51.652;4.864;2023-03-01T03:06:02;6.38;;;3.30;;
71353;SDS011;59393;51.652;4.864;2023-03-01T03:08:28;5.10;;;2.03;;
71353;SDS011;59393;51.652;4.864;2023-03-01T03:10:54;10.18;;;3.45;;
71353;SDS011;59393;51.652;4.864;2023-03-01T03:13:20;7.70;;;3.33;;
71353;SDS011;59393;51.652;4.864;2023-03-01T03:15:47;8.73;;;3.20;;
71353;SDS011;59393;51.652;4.864;2023-03-01T03:18:14;8.98;;;3.47;;
71353;SDS011;59393;51.652;4.864;2023-03-01T03:20:40;6.28;;;2.05;;
71353;SDS011;59393;51.652;4.864;2023-03-01T03:23:07;7.78;;;3.85;;
71353;SDS011;59393;51.652;4.864;2023-03-01T03:25:33;9.03;;;3.87;;
71353;SDS011;59393;51.652;4.864;2023-03-01T03:28:02;9.15;;;3.83;;
71353;SDS011;59393;51.652;4.864;2023-03-01T03:30:34;8.23;;;3.25;;
71353;SDS011;59393;51.652;4.864;2023-03-01T03:33:00;8.73;;;3.28;;
71353;SDS011;59393;51.652;4.864;2023-03-01T03:35:27;8.52;;;3.53;;
71353;SDS011;59393;51.652;4.864;2023-03-01T03:37:57;8.82;;;3.75;;
71353;SDS011;59393;51.652;4.864;2023-03-01T03:40:28;7.90;;;3.50;;
71353;SDS011;59393;51.652;4.864;2023-03-01T03:42:54;6.97;;;3.10;;
71353;SDS011;59393;51.652;4.864;2023-03-01T03:45:20;10.85;;;3.78;;
71353;SDS011;59393;51.652;4.864;2023-03-01T03:47:46;10.70;;;4.07;;
71353;SDS011;59393;51.652;4.864;2023-03-01T03:50:13;7.57;;;3.35;;
71353;SDS011;59393;51.652;4.864;2023-03-01T03:52:40;7.78;;;3.35;;
71353;SDS011;59393;51.652;4.864;2023-03-01T03:55:07;7.32;;;3.05;;
71353;SDS011;59393;51.652;4.864;2023-03-01T03:57:34;10.38;;;3.80;;
71353;SDS011;59393;51.652;4.864;2023-03-01T04:00:00;7.27;;;3.40;;
71353;SDS011;59393;51.652;4.864;2023-03-01T04:02:28;8.15;;;2.97;;
71353;SDS011;59393;51.652;4.864;2023-03-01T04:04:54;7.22;;;3.00;;
71353;SDS011;59393;51.652;4.864;2023-03-01T04:07:20;10.70;;;3.47;;
71353;SDS011;59393;51.652;4.864;2023-03-01T04:09:46;8.60;;;3.70;;
71353;SDS011;59393;51.652;4.864;2023-03-01T04:12:12;9.63;;;4.07;;
71353;SDS011;59393;51.652;4.864;2023-03-01T04:14:38;8.48;;;2.92;;
71353;SDS011;59393;51.652;4.864;2023-03-01T04:17:04;11.10;;;4.03;;
71353;SDS011;59393;51.652;4.864;2023-03-01T04:19:31;7.47;;;3.77;;
71353;SDS011;59393;51.652;4.864;2023-03-01T04:22:01;10.38;;;4.38;;
71353;SDS011;59393;51.652;4.864;2023-03-01T04:24:32;11.95;;;4.18;;
71353;SDS011;59393;51.652;4.864;2023-03-01T04:26:58;8.82;;;3.88;;
71353;SDS011;59393;51.652;4.864;2023-03-01T04:29:24;13.27;;;4.60;;
71353;SDS011;59393;51.652;4.864;2023-03-01T04:31:50;11.52;;;3.92;;
71353;SDS011;59393;51.652;4.864;2023-03-01T04:34:16;10.55;;;4.28;;
71353;SDS011;59393;51.652;4.864;2023-03-01T04:36:42;12.18;;;3.85;;
71353;SDS011;59393;51.652;4.864;2023-03-01T04:39:08;14.00;;;4.15;;
71353;SDS011;59393;51.652;4.864;2023-03-01T04:41:37;9.97;;;3.77;;
71353;SDS011;59393;51.652;4.864;2023-03-01T04:44:04;12.02;;;3.67;;
71353;SDS011;59393;51.652;4.864;2023-03-01T04:46:30;8.95;;;3.15;;
71353;SDS011;59393;51.652;4.864;2023-03-01T04:48:56;11.82;;;4.30;;
71353;SDS011;59393;51.652;4.864;2023-03-01T04:51:22;9.10;;;4.25;;
71353;SDS011;59393;51.652;4.864;2023-03-01T04:53:48;12.63;;;4.33;;
71353;SDS011;59393;51.652;4.864;2023-03-01T04:56:14;9.32;;;3.65;;
71353;SDS011;59393;51.652;4.864;2023-03-01T04:58:41;9.02;;;4.10;;
71353;SDS011;59393;51.652;4.864;2023-03-01T05:01:08;10.93;;;4.43;;
71353;SDS011;59393;51.652;4.864;2023-03-01T05:03:40;10.73;;;4.43;;
71353;SDS011;59393;51.652;4.864;2023-03-01T05:06:06;9.20;;;3.27;;
71353;SDS011;59393;51.652;4.864;2023-03-01T05:08:32;10.68;;;4.25;;
71353;SDS011;59393;51.652;4.864;2023-03-01T05:11:02;12.00;;;4.53;;
71353;SDS011;59393;51.652;4.864;2023-03-01T05:13:28;11.38;;;4.40;;
71353;SDS011;59393;51.652;4.864;2023-03-01T05:15:55;6.87;;;2.40;;
71353;SDS011;59393;51.652;4.864;2023-03-01T05:18:22;10.90;;;4.25;;
71353;SDS011;59393;51.652;4.864;2023-03-01T05:20:50;8.65;;;3.58;;
71353;SDS011;59393;51.652;4.864;2023-03-01T05:23:17;9.00;;;3.67;;
71353;SDS011;59393;51.652;4.864;2023-03-01T05:25:43;10.23;;;4.18;;
71353;SDS011;59393;51.652;4.864;2023-03-01T05:28:11;8.00;;;3.50;;
71353;SDS011;59393;51.652;4.864;2023-03-01T05:30:37;8.18;;;3.72;;
71353;SDS011;59393;51.652;4.864;2023-03-01T05:33:06;9.90;;;4.20;;
71353;SDS011;59393;51.652;4.864;2023-03-01T05:35:38;10.65;;;4.30;;
71353;SDS011;59393;51.652;4.864;2023-03-01T05:38:04;14.25;;;4.32;;
71353;SDS011;59393;51.652;4.864;2023-03-01T05:40:32;19.17;;;4.13;;
71353;SDS011;59393;51.652;4.864;2023-03-01T05:42:58;8.82;;;3.83;;
71353;SDS011;59393;51.652;4.864;2023-03-01T05:45:24;9.02;;;4.28;;
71353;SDS011;59393;51.652;4.864;2023-03-01T05:47:51;10.27;;;3.75;;
71353;SDS011;59393;51.652;4.864;2023-03-01T05:50:18;14.35;;;4.63;;
71353;SDS011;59393;51.652;4.864;2023-03-01T05:52:45;11.67;;;4.20;;
71353;SDS011;59393;51.652;4.864;2023-03-01T05:55:11;9.75;;;3.80;;
71353;SDS011;59393;51.652;4.864;2023-03-01T05:57:37;8.65;;;4.20;;
71353;SDS011;59393;51.652;4.864;2023-03-01T06:00:03;8.60;;;4.03;;
71353;SDS011;59393;51.652;4.864;2023-03-01T06:02:31;10.77;;;4.37;;
71353;SDS011;59393;51.652;4.864;2023-03-01T06:04:57;10.60;;;4.07;;
71353;SDS011;59393;51.652;4.864;2023-03-01T06:07:23;10.82;;;3.58;;
71353;SDS011;59393;51.652;4.864;2023-03-01T06:09:49;8.48;;;3.90;;
71353;SDS011;59393;51.652;4.864;2023-03-01T06:12:15;11.02;;;4.13;;
71353;SDS011;59393;51.652;4.864;2023-03-01T06:14:41;12.00;;;4.20;;
71353;SDS011;59393;51.652;4.864;2023-03-01T06:17:07;12.75;;;4.55;;
71353;SDS011;59393;51.652;4.864;2023-03-01T06:19:33;11.40;;;4.75;;
71353;SDS011;59393;51.652;4.864;2023-03-01T06:21:59;12.43;;;4.30;;
71353;SDS011;59393;51.652;4.864;2023-03-01T06:24:25;17.65;;;4.85;;
71353;SDS011;59393;51.652;4.864;2023-03-01T06:26:52;12.20;;;5.20;;
71353;SDS011;59393;51.652;4.864;2023-03-01T06:29:18;11.10;;;4.43;;
71353;SDS011;59393;51.652;4.864;2023-03-01T06:31:44;11.93;;;4.50;;
71353;SDS011;59393;51.652;4.864;2023-03-01T06:34:10;11.70;;;4.82;;
71353;SDS011;59393;51.652;4.864;2023-03-01T06:36:38;11.07;;;4.50;;
71353;SDS011;59393;51.652;4.864;2023-03-01T06:39:04;12.30;;;3.80;;
71353;SDS011;59393;51.652;4.864;2023-03-01T06:41:30;10.68;;;4.25;;
71353;SDS011;59393;51.652;4.864;2023-03-01T06:43:57;10.37;;;3.97;;
71353;SDS011;59393;51.652;4.864;2023-03-01T06:46:24;10.85;;;4.57;;
71353;SDS011;59393;51.652;4.864;2023-03-01T06:48:50;13.85;;;3.95;;
71353;SDS011;59393;51.652;4.864;2023-03-01T06:51:16;10.40;;;4.50;;
71353;SDS011;59393;51.652;4.864;2023-03-01T06:53:42;11.35;;;4.80;;
71353;SDS011;59393;51.652;4.864;2023-03-01T06:56:08;11.67;;;4.27;;
71353;SDS011;59393;51.652;4.864;2023-03-01T06:58:34;16.13;;;4.57;;
71353;SDS011;59393;51.652;4.864;2023-03-01T07:01:00;9.63;;;4.28;;
71353;SDS011;59393;51.652;4.864;2023-03-01T07:03:26;16.95;;;4.72;;
71353;SDS011;59393;51.652;4.864;2023-03-01T07:05:51;9.33;;;4.20;;
71353;SDS011;59393;51.652;4.864;2023-03-01T07:08:18;10.82;;;3.88;;
71353;SDS011;59393;51.652;4.864;2023-03-01T07:10:44;10.73;;;4.50;;
71353;SDS011;59393;51.652;4.864;2023-03-01T07:13:10;8.82;;;4.07;;
71353;SDS011;59393;51.652;4.864;2023-03-01T07:15:36;12.77;;;4.38;;
71353;SDS011;59393;51.652;4.864;2023-03-01T07:18:02;10.90;;;4.47;;
71353;SDS011;59393;51.652;4.864;2023-03-01T07:20:28;9.13;;;3.85;;
71353;SDS011;59393;51.652;4.864;2023-03-01T07:22:54;12.10;;;4.97;;
71353;SDS011;59393;51.652;4.864;2023-03-01T07:25:23;12.77;;;3.97;;
71353;SDS011;59393;51.652;4.864;2023-03-01T07:27:52;10.07;;;4.37;;
71353;SDS011;59393;51.652;4.864;2023-03-01T07:30:19;9.73;;;4.30;;
71353;SDS011;59393;51.652;4.864;2023-03-01T07:32:45;10.38;;;3.83;;
71353;SDS011;59393;51.652;4.864;2023-03-01T07:35:11;9.45;;;3.88;;
71353;SDS011;59393;51.652;4.864;2023-03-01T07:37:37;10.35;;;4.72;;
71353;SDS011;59393;51.652;4.864;2023-03-01T07:40:03;10.63;;;3.83;;
71353;SDS011;59393;51.652;4.864;2023-03-01T07:42:29;12.95;;;4.68;;
71353;SDS011;59393;51.652;4.864;2023-03-01T07:44:55;18.98;;;4.95;;
71353;SDS011;59393;51.652;4.864;2023-03-01T07:47:21;12.23;;;4.38;;
71353;SDS011;59393;51.652;4.864;2023-03-01T07:49:47;11.00;;;3.83;;
71353;SDS011;59393;51.652;4.864;2023-03-01T07:52:13;10.80;;;4.63;;
71353;SDS011;59393;51.652;4.864;2023-03-01T07:54:41;11.85;;;4.55;;
71353;SDS011;59393;51.652;4.864;2023-03-01T07:57:09;13.90;;;5.10;;
71353;SDS011;59393;51.652;4.864;2023-03-01T07:59:35;12.70;;;3.50;;
71353;SDS011;59393;51.652;4.864;2023-03-01T08:02:01;13.52;;;4.68;;
71353;SDS011;59393;51.652;4.864;2023-03-01T08:04:27;11.77;;;4.78;;
71353;SDS011;59393;51.652;4.864;2023-03-01T08:06:53;9.30;;;4.30;;
71353;SDS011;59393;51.652;4.864;2023-03-01T08:09:19;14.80;;;5.35;;
71353;SDS011;59393;51.652;4.864;2023-03-01T08:11:45;10.85;;;3.80;;
71353;SDS011;59393;51.652;4.864;2023-03-01T08:14:11;11.40;;;4.57;;
71353;SDS011;59393;51.652;4.864;2023-03-01T08:16:37;9.45;;;3.88;;
71353;SDS011;59393;51.652;4.864;2023-03-01T08:19:04;11.65;;;4.78;;
71353;SDS011;59393;51.652;4.864;2023-03-01T08:21:30;10.30;;;4.07;;
71353;SDS011;59393;51.652;4.864;2023-03-01T08:23:56;11.47;;;4.03;;
71353;SDS011;59393;51.652;4.864;2023-03-01T08:26:22;10.77;;;4.28;;
71353;SDS011;59393;51.652;4.864;2023-03-01T08:28:48;12.18;;;3.72;;
71353;SDS011;59393;51.652;4.864;2023-03-01T08:31:16;9.80;;;4.20;;
71353;SDS011;59393;51.652;4.864;2023-03-01T08:33:42;11.87;;;4.13;;
71353;SDS011;59393;51.652;4.864;2023-03-01T08:36:08;12.43;;;5.22;;
71353;SDS011;59393;51.652;4.864;2023-03-01T08:38:35;9.85;;;3.42;;
71353;SDS011;59393;51.652;4.864;2023-03-01T08:41:01;9.75;;;3.55;;
71353;SDS011;59393;51.652;4.864;2023-03-01T08:43:27;10.35;;;4.57;;
71353;SDS011;59393;51.652;4.864;2023-03-01T08:45:53;7.03;;;2.90;;
71353;SDS011;59393;51.652;4.864;2023-03-01T08:48:19;9.27;;;3.70;;
71353;SDS011;59393;51.652;4.864;2023-03-01T08:50:46;9.52;;;4.22;;
71353;SDS011;59393;51.652;4.864;2023-03-01T08:53:11;10.00;;;3.28;;
71353;SDS011;59393;51.652;4.864;2023-03-01T08:55:37;8.93;;;3.92;;
71353;SDS011;59393;51.652;4.864;2023-03-01T08:58:03;8.60;;;3.47;;
71353;SDS011;59393;51.652;4.864;2023-03-01T09:00:29;9.07;;;3.72;;
71353;SDS011;59393;51.652;4.864;2023-03-01T09:02:55;7.72;;;3.67;;
71353;SDS011;59393;51.652;4.864;2023-03-01T09:05:21;7.15;;;2.67;;
71353;SDS011;59393;51.652;4.864;2023-03-01T09:07:47;4.63;;;2.03;;
71353;SDS011;59393;51.652;4.864;2023-03-01T09:10:13;18.10;;;4.18;;
71353;SDS011;59393;51.652;4.864;2023-03-01T09:12:39;11.10;;;3.67;;
71353;SDS011;59393;51.652;4.864;2023-03-01T09:15:05;8.85;;;3.70;;
71353;SDS011;59393;51.652;4.864;2023-03-01T09:17:31;9.15;;;3.05;;
71353;SDS011;59393;51.652;4.864;2023-03-01T09:19:57;7.05;;;2.92;;
71353;SDS011;59393;51.652;4.864;2023-03-01T09:22:24;8.75;;;3.50;;
71353;SDS011;59393;51.652;4.864;2023-03-01T09:24:50;8.10;;;3.33;;
71353;SDS011;59393;51.652;4.864;2023-03-01T09:27:16;11.83;;;3.40;;
71353;SDS011;59393;51.652;4.864;2023-03-01T09:29:44;9.25;;;3.33;;
71353;SDS011;59393;51.652;4.864;2023-03-01T09:32:10;9.77;;;3.70;;
71353;SDS011;59393;51.652;4.864;2023-03-01T09:34:36;7.57;;;3.20;;
71353;SDS011;59393;51.652;4.864;2023-03-01T09:37:22;8.25;;;3.70;;
71353;SDS011;59393;51.652;4.864;2023-03-01T09:39:48;10.30;;;3.20;;
71353;SDS011;59393;51.652;4.864;2023-03-01T09:42:14;8.88;;;2.88;;
71353;SDS011;59393;51.652;4.864;2023-03-01T09:47:44;5.70;;;2.10;;
71353;SDS011;59393;51.652;4.864;2023-03-01T09:50:12;9.02;;;2.55;;
71353;SDS011;59393;51.652;4.864;2023-03-01T09:52:46;8.07;;;3.27;;
71353;SDS011;59393;51.652;4.864;2023-03-01T09:55:26;8.40;;;3.30;;
71353;SDS011;59393;51.652;4.864;2023-03-01T09:57:56;12.73;;;3.63;;
71353;SDS011;59393;51.652;4.864;2023-03-01T10:03:55;8.65;;;2.92;;
71353;SDS011;59393;51.652;4.864;2023-03-01T10:10:48;7.80;;;2.65;;
71353;SDS011;59393;51.652;4.864;2023-03-01T10:14:01;8.10;;;3.15;;
71353;SDS011;59393;51.652;4.864;2023-03-01T10:16:04;7.50;;;1.92;;
71353;SDS011;59393;51.652;4.864;2023-03-01T10:18:31;3.40;;;1.17;;
71353;SDS011;59393;51.652;4.864;2023-03-01T10:21:02;6.75;;;2.17;;
71353;SDS011;59393;51.652;4.864;2023-03-01T10:23:32;8.52;;;2.60;;
71353;SDS011;59393;51.652;4.864;2023-03-01T10:26:09;5.88;;;2.20;;
71353;SDS011;59393;51.652;4.864;2023-03-01T10:29:22;7.28;;;2.70;;
71353;SDS011;59393;51.652;4.864;2023-03-01T10:31:24;7.27;;;2.70;;
71353;SDS011;59393;51.652;4.864;2023-03-01T10:33:53;7.22;;;2.50;;
71353;SDS011;59393;51.652;4.864;2023-03-01T10:36:20;5.65;;;1.85;;
71353;SDS011;59393;51.652;4.864;2023-03-01T10:38:54;5.10;;;2.22;;
71353;SDS011;59393;51.652;4.864;2023-03-01T10:41:22;6.72;;;2.67;;
71353;SDS011;59393;51.652;4.864;2023-03-01T10:43:50;7.77;;;2.77;;
71353;SDS011;59393;51.652;4.864;2023-03-01T10:51:30;5.32;;;1.98;;
71353;SDS011;59393;51.652;4.864;2023-03-01T10:53:56;5.13;;;1.77;;
71353;SDS011;59393;51.652;4.864;2023-03-01T10:56:22;5.33;;;1.70;;
71353;SDS011;59393;51.652;4.864;2023-03-01T10:58:57;5.40;;;1.90;;
71353;SDS011;59393;51.652;4.864;2023-03-01T11:01:25;8.57;;;3.13;;
71353;SDS011;59393;51.652;4.864;2023-03-01T11:06:34;5.88;;;1.85;;
71353;SDS011;59393;51.652;4.864;2023-03-01T11:09:13;9.27;;;2.40;;
71353;SDS011;59393;51.652;4.864;2023-03-01T11:11:40;8.00;;;3.30;;
71353;SDS011;59393;51.652;4.864;2023-03-01T11:14:07;7.00;;;2.95;;
71353;SDS011;59393;51.652;4.864;2023-03-01T11:16:35;7.57;;;3.08;;
71353;SDS011;59393;51.652;4.864;2023-03-01T11:21:46;6.43;;;2.30;;
71353;SDS011;59393;51.652;4.864;2023-03-01T11:24:14;6.55;;;2.40;;
71353;SDS011;59393;51.652;4.864;2023-03-01T11:26:41;5.43;;;2.10;;
71353;SDS011;59393;51.652;4.864;2023-03-01T11:31:58;7.07;;;2.60;;
71353;SDS011;59393;51.652;4.864;2023-03-01T11:34:44;6.07;;;2.03;;
71353;SDS011;59393;51.652;4.864;2023-03-01T11:37:15;9.40;;;3.10;;
71353;SDS011;59393;51.652;4.864;2023-03-01T11:39:56;7.55;;;2.55;;
71353;SDS011;59393;51.652;4.864;2023-03-01T11:42:27;6.32;;;2.63;;
71353;SDS011;59393;51.652;4.864;2023-03-01T11:44:56;7.40;;;2.78;;
71353;SDS011;59393;51.652;4.864;2023-03-01T11:49:54;6.07;;;1.75;;
71353;SDS011;59393;51.652;4.864;2023-03-01T11:52:29;3.00;;;1.25;;
71353;SDS011;59393;51.652;4.864;2023-03-01T11:55:17;7.30;;;2.30;;
71353;SDS011;59393;51.652;4.864;2023-03-01T12:02:45;7.80;;;3.10;;
71353;SDS011;59393;51.652;4.864;2023-03-01T12:05:23;6.10;;;2.35;;
71353;SDS011;59393;51.652;4.864;2023-03-01T12:10:27;7.57;;;3.00;;
71353;SDS011;59393;51.652;4.864;2023-03-01T12:17:49;8.55;;;3.38;;
71353;SDS011;59393;51.652;4.864;2023-03-01T12:26:10;10.57;;;3.88;;
71353;SDS011;59393;51.652;4.864;2023-03-01T12:49:22;9.00;;;3.37;;
71353;SDS011;59393;51.652;4.864;2023-03-01T12:51:59;15.88;;;2.95;;
71353;SDS011;59393;51.652;4.864;2023-03-01T12:54:28;8.18;;;3.45;;
71353;SDS011;59393;51.652;4.864;2023-03-01T12:56:55;13.02;;;3.63;;
71353;SDS011;59393;51.652;4.864;2023-03-01T12:59:31;8.13;;;3.60;;
71353;SDS011;59393;51.652;4.864;2023-03-01T13:17:48;7.72;;;2.35;;
71353;SDS011;59393;51.652;4.864;2023-03-01T13:20:15;7.20;;;2.90;;
71353;SDS011;59393;51.652;4.864;2023-03-01T13:22:42;8.15;;;3.08;;
71353;SDS011;59393;51.652;4.864;2023-03-01T13:25:16;8.02;;;3.08;;
71353;SDS011;59393;51.652;4.864;2023-03-01T13:27:43;4.53;;;1.40;;
71353;SDS011;59393;51.652;4.864;2023-03-01T13:35:54;4.43;;;1.92;;
71353;SDS011;59393;51.652;4.864;2023-03-01T13:41:02;5.43;;;1.80;;
71353;SDS011;59393;51.652;4.864;2023-03-01T13:43:30;7.35;;;2.80;;
71353;SDS011;59393;51.652;4.864;2023-03-01T13:45:57;5.68;;;2.10;;
71353;SDS011;59393;51.652;4.864;2023-03-01T13:48:27;7.40;;;3.13;;
71353;SDS011;59393;51.652;4.864;2023-03-01T13:53:49;7.83;;;3.03;;
71353;SDS011;59393;51.652;4.864;2023-03-01T13:56:17;7.05;;;2.50;;
71353;SDS011;59393;51.652;4.864;2023-03-01T13:58:49;5.65;;;2.42;;
71353;SDS011;59393;51.652;4.864;2023-03-01T14:01:23;6.38;;;2.70;;
71353;SDS011;59393;51.652;4.864;2023-03-01T14:03:49;8.60;;;3.75;;
71353;SDS011;59393;51.652;4.864;2023-03-01T14:06:17;8.80;;;3.20;;
71353;SDS011;59393;51.652;4.864;2023-03-01T14:08:45;8.98;;;3.40;;
71353;SDS011;59393;51.652;4.864;2023-03-01T14:19:35;7.43;;;2.97;;
71353;SDS011;59393;51.652;4.864;2023-03-01T14:22:23;8.68;;;3.70;;
71353;SDS011;59393;51.652;4.864;2023-03-01T14:24:52;8.38;;;3.28;;
71353;SDS011;59393;51.652;4.864;2023-03-01T14:27:19;10.25;;;2.75;;
71353;SDS011;59393;51.652;4.864;2023-03-01T14:29:59;6.25;;;2.90;;
71353;SDS011;59393;51.652;4.864;2023-03-01T14:32:29;5.67;;;2.20;;
71353;SDS011;59393;51.652;4.864;2023-03-01T14:34:57;6.55;;;2.85;;
71353;SDS011;59393;51.652;4.864;2023-03-01T14:37:27;5.88;;;2.55;;
71353;SDS011;59393;51.652;4.864;2023-03-01T14:39:55;7.38;;;2.83;;
71353;SDS011;59393;51.652;4.864;2023-03-01T14:42:22;5.22;;;2.10;;
71353;SDS011;59393;51.652;4.864;2023-03-01T14:44:50;6.70;;;2.70;;
71353;SDS011;59393;51.652;4.864;2023-03-01T14:47:35;7.03;;;2.63;;
71353;SDS011;59393;51.652;4.864;2023-03-01T14:52:39;6.85;;;3.20;;
71353;SDS011;59393;51.652;4.864;2023-03-01T14:55:07;9.10;;;3.50;;
71353;SDS011;59393;51.652;4.864;2023-03-01T14:57:42;10.23;;;3.10;;
71353;SDS011;59393;51.652;4.864;2023-03-01T15:00:10;7.55;;;3.22;;
71353;SDS011;59393;51.652;4.864;2023-03-01T15:02:40;10.15;;;3.50;;
71353;SDS011;59393;51.652;4.864;2023-03-01T15:05:08;11.27;;;2.95;;
71353;SDS011;59393;51.652;4.864;2023-03-01T15:07:36;5.85;;;2.40;;
71353;SDS011;59393;51.652;4.864;2023-03-01T15:10:03;7.27;;;2.70;;
71353;SDS011;59393;51.652;4.864;2023-03-01T15:12:37;7.75;;;2.90;;
71353;SDS011;59393;51.652;4.864;2023-03-01T15:15:45;6.93;;;2.67;;
71353;SDS011;59393;51.652;4.864;2023-03-01T15:17:54;7.78;;;2.50;;
71353;SDS011;59393;51.652;4.864;2023-03-01T15:20:20;7.68;;;3.17;;
71353;SDS011;59393;51.652;4.864;2023-03-01T15:22:50;7.77;;;2.90;;
71353;SDS011;59393;51.652;4.864;2023-03-01T15:25:17;7.75;;;2.78;;
71353;SDS011;59393;51.652;4.864;2023-03-01T15:27:47;6.70;;;2.47;;
71353;SDS011;59393;51.652;4.864;2023-03-01T15:30:18;6.88;;;2.25;;
71353;SDS011;59393;51.652;4.864;2023-03-01T15:32:44;5.60;;;2.17;;
71353;SDS011;59393;51.652;4.864;2023-03-01T15:37:55;6.43;;;2.45;;
71353;SDS011;59393;51.652;4.864;2023-03-01T15:42:59;6.20;;;1.90;;
71353;SDS011;59393;51.652;4.864;2023-03-01T15:45:27;8.90;;;2.97;;
71353;SDS011;59393;51.652;4.864;2023-03-01T15:50:32;6.32;;;2.83;;
71353;SDS011;59393;51.652;4.864;2023-03-01T15:52:59;7.00;;;2.92;;
71353;SDS011;59393;51.652;4.864;2023-03-01T15:55:30;11.10;;;3.33;;
71353;SDS011;59393;51.652;4.864;2023-03-01T15:58:05;4.47;;;1.70;;
71353;SDS011;59393;51.652;4.864;2023-03-01T16:00:32;5.73;;;2.40;;
71353;SDS011;59393;51.652;4.864;2023-03-01T16:02:58;6.65;;;2.55;;
71353;SDS011;59393;51.652;4.864;2023-03-01T16:05:29;7.35;;;3.15;;
71353;SDS011;59393;51.652;4.864;2023-03-01T16:07:55;7.97;;;3.20;;
71353;SDS011;59393;51.652;4.864;2023-03-01T16:10:22;8.48;;;3.33;;
71353;SDS011;59393;51.652;4.864;2023-03-01T16:12:48;7.03;;;2.80;;
71353;SDS011;59393;51.652;4.864;2023-03-01T16:15:17;6.63;;;2.45;;
71353;SDS011;59393;51.652;4.864;2023-03-01T16:17:44;5.97;;;2.53;;
71353;SDS011;59393;51.652;4.864;2023-03-01T16:20:10;7.00;;;2.58;;
71353;SDS011;59393;51.652;4.864;2023-03-01T16:22:36;8.75;;;3.50;;
71353;SDS011;59393;51.652;4.864;2023-03-01T16:25:02;9.90;;;3.13;;
71353;SDS011;59393;51.652;4.864;2023-03-01T16:27:28;7.50;;;2.90;;
71353;SDS011;59393;51.652;4.864;2023-03-01T16:29:54;7.00;;;2.60;;
71353;SDS011;59393;51.652;4.864;2023-03-01T16:32:20;8.48;;;2.72;;
71353;SDS011;59393;51.652;4.864;2023-03-01T16:34:46;7.15;;;2.70;;
71353;SDS011;59393;51.652;4.864;2023-03-01T16:37:14;9.50;;;3.70;;
71353;SDS011;59393;51.652;4.864;2023-03-01T16:39:40;8.55;;;3.00;;
71353;SDS011;59393;51.652;4.864;2023-03-01T16:42:06;9.80;;;3.00;;
71353;SDS011;59393;51.652;4.864;2023-03-01T16:44:32;8.20;;;3.42;;